DIRECCIÓN GENERAL DE AERONÁUTICA CIVIL
DIRECCIÓN METEOROLÓGICA DE CHILE
INFORMACIÓN METAR Y TAF

FIR SANTIAGO

Estación: SCSE
METAR SCSE 300200Z 30003KT 9999 OVC010 12/11 Q1015=

TAF COR SCSE 292248Z 3000/3024 13003KT 9999 BKN012 TX14/3018Z TN10/ 3010Z BECMG 3003/3005 SCT008 BKN010 TEMPO 3010/3014 VRB02KT 3000 BR BKN008 BECMG 3015/3017 28005KT SCT012 BKN015 BECMG 3018/3020 30008KT FEW015=

Estación: SCER
METAR SCER 161100Z 00000KT 7000 OVC014 12/10 Q1015=

TAF SCER NIL=

Estación: SCRD
METAR SCRD 292200Z 18004KT CAVOK 14/10 Q1015=

TAF AMD SCRD 291330Z 2914/2924 VRB02KT CAVOK TX15/2918Z TN07/2913Z TEMPO 2914/2916 3000 BR NSC BECMG 2916/2918 33006KT=

Estación: SCVM
METAR SCVM 300200Z 33002KT 8000 VCFG NSC 10/09 Q1016=

TAF SCVM 292240Z 3000/3024 15005KT CAVOK TX15/3018Z TN07/3010Z BECMG 3002/3004 15003KT TEMPO 3010/3014 VRB02KT 5000 HZ FEW008 BKN012 BECMG 3015/3017 29008KT=

Estación: SCTB
METAR SCTB 292200Z 20003KT 7000 NSC 16/05 Q1015=

TAF AMD SCTB 291852Z 2919/2924 VRB02KT 8000 SCT150 BKN200 TX18/2918Z TN05/2912Z TEMPO 2920/2923 5000 HZ=

Estación: SCEL
METAR SCEL 300200Z 16004KT 130V190 CAVOK 11/07 Q1016 NOSIG=

TAF SCEL 292241Z 3000/3024 16005KT 8000 NSC TX15/19Z TN03/3010Z BECMG 3006/3008 5000 HZ BECMG 3008/3010 VRB02KT 3000 BR TEMPO 3010/3015 0700 BCFG FEW008 BECMG 3016/3018 19003KT 7000 TEMPO 3018/3023 CAVOK=

Estación: SCSN
SPECI SCSN 300140Z AUTO 00000KT 4100 BR NCD 09/08 Q1017=

TAF AMD SCSN 291707Z 2917/2924 VRB02KT 8000 SCT006 TX13/2918Z TN07/ 2912Z BECMG 2919/2921 CAVOK=

Estación: SCRG
METAR SCRG 292100Z 19007KT CAVOK 17/07 Q1014=

TAF COR SCRG 291149Z 2912/2924 VRB02KT 4000 BR NSC TX17/2918Z TN06/ 2912Z TEMPO 2912/2914 0500 FG BECMG 2916/2918 21008KT CAVOK=

Estación: SCIC
SPECI SCIC 300152Z AUTO 08002KT 2400 BR NCD 09/09 Q1016=

TAF AMD SCIC 291645Z 2917/2924 15003KT 2000 BR BKN005 TX12/2919Z TN06 /2912Z BECMG 2918/2920 20005KT 5000 HZ SCT008 BKN018 SCSC WEAV 7241=

Estación: SCCH
SPECI SCCH 300132Z AUTO 25003KT 220V280 9999 BCFG BKN032 10/08 Q1017=

TAF AMD SCCH 291709 2917/2924 35008KT 6000 SCT005 BKN020 TX14/2918Z TN10/2912Z BECMG 2920/2922 8000 SCT025=

Estación: SCIE
METAR SCIE 300200Z 01004KT 0800 R02/0800N RMID/0800VP2000U FG VV001 10/10 Q1017=

TAF COR SCIE 292250Z 3000/3024 02008KT 2000 SCT005 BKN012 TX12/2918Z TN08/3010Z TEMPO 3000/3005 0500 BCFG BKN002 BECMG 3008/3010 9999 SCT012 BKN020 BECMG 3015/3017 22010KT SCT030 TEMPO 3020/3024 5000 SHRA SCT020 BKN030=

Estación: SCGE
METAR SCGE 292100Z 36005KT 9999 SCT040 13/11 Q1017=

TAF AMD SCGE 291643Z 2917/2924 30005KT 9999 BKN015 TX12/2918Z TN09/ 2912Z BECMG 2919/2921 SCT015 SCT030 =


Volver